Time;durP1;ratioP1;P1;durP2;ratioP2;P2;SDS_P1;SDS_P2;PMS_P1;PMS_P2;Temp;Humidity;BMP_temperature;BMP_pressure;BME280_temperature;BME280_humidity;BME280_pressure;Samples;Min_cycle;Max_cycle;Signal;HPM_P1;HPM_P2
2022/11/19 00:01:46;;;;;;;;;;;19.40;43.60;;;;;;5049635;28;19920;-71
2022/11/19 00:04:11;;;;;;;;;;;19.40;43.60;;;;;;5028602;28;19920;-70
2022/11/19 00:06:36;;;;;;;;;;;19.40;43.50;;;;;;5042860;28;19942;-72
2022/11/19 00:09:04;;;;;;;;;;;19.40;43.60;;;;;;5047271;28;19989;-72
2022/11/19 00:14:13;;;;;;;;;;;19.40;43.40;;;;;;5048228;28;19959;-72
2022/11/19 00:16:39;;;;;;;;;;;19.40;43.30;;;;;;5030773;28;20472;-72
2022/11/19 00:19:04;;;;;;;;;;;19.40;43.30;;;;;;5032966;28;19948;-72
2022/11/19 00:21:30;;;;;;;;;;;19.40;43.40;;;;;;5043931;28;19920;-72
2022/11/19 00:23:55;;;;;;;;;;;19.40;43.20;;;;;;5050759;28;19912;-72
2022/11/19 00:26:21;;;;;;;;;;;19.40;43.30;;;;;;5051617;28;19920;-72
2022/11/19 00:28:46;;;;;;;;;;;19.30;43.20;;;;;;5029814;28;19913;-72
2022/11/19 00:31:12;;;;;;;;;;;19.40;43.20;;;;;;5016667;28;19913;-71
2022/11/19 00:33:38;;;;;;;;;;;19.40;43.20;;;;;;5037097;28;19962;-71
2022/11/19 00:36:04;;;;;;;;;;;19.30;43.20;;;;;;5051419;28;19913;-72
2022/11/19 00:38:29;;;;;;;;;;;19.30;43.20;;;;;;5020164;28;19928;-71
2022/11/19 00:40:56;;;;;;;;;;;19.30;43.30;;;;;;5033054;28;21298;-71
2022/11/19 00:46:06;;;;;;;;;;;19.30;43.20;;;;;;5030024;28;19920;-72
2022/11/19 00:48:32;;;;;;;;;;;19.30;43.00;;;;;;5049943;28;20007;-71
2022/11/19 00:50:57;;;;;;;;;;;19.30;43.00;;;;;;5015886;28;20403;-73
2022/11/19 00:53:22;;;;;;;;;;;19.30;43.00;;;;;;5053034;28;19913;-72
2022/11/19 00:55:48;;;;;;;;;;;19.30;43.10;;;;;;5028074;28;19960;-71
2022/11/19 00:58:13;;;;;;;;;;;19.30;43.00;;;;;;5050081;28;20339;-72
2022/11/19 01:00:39;;;;;;;;;;;19.30;43.00;;;;;;5046341;28;19913;-72
2022/11/19 01:03:04;;;;;;;;;;;19.30;43.60;;;;;;5051174;28;19917;-72
2022/11/19 01:05:30;;;;;;;;;;;19.30;42.90;;;;;;5034408;28;19916;-71
2022/11/19 01:07:55;;;;;;;;;;;19.30;43.00;;;;;;5032201;28;20396;-71
2022/11/19 01:10:21;;;;;;;;;;;19.30;42.90;;;;;;5016927;28;20284;-72
2022/11/19 01:15:30;;;;;;;;;;;19.20;43.50;;;;;;5051011;28;20426;-72
2022/11/19 01:17:56;;;;;;;;;;;19.20;42.80;;;;;;5037664;28;19928;-72
2022/11/19 01:20:21;;;;;;;;;;;19.30;42.90;;;;;;5033669;28;19913;-72
2022/11/19 01:22:46;;;;;;;;;;;19.20;42.80;;;;;;5035370;28;19917;-71
2022/11/19 01:25:13;;;;;;;;;;;19.30;42.80;;;;;;5047218;28;20379;-72
2022/11/19 01:27:38;;;;;;;;;;;19.20;42.80;;;;;;5045579;28;20288;-73
2022/11/19 01:30:04;;;;;;;;;;;19.20;42.70;;;;;;5028393;28;19969;-72
2022/11/19 01:32:30;;;;;;;;;;;19.20;42.70;;;;;;5036556;28;20373;-71
2022/11/19 01:34:55;;;;;;;;;;;19.10;42.70;;;;;;5029666;28;19920;-71
2022/11/19 01:37:20;;;;;;;;;;;19.10;42.70;;;;;;5052437;28;19928;-72
2022/11/19 01:39:46;;;;;;;;;;;19.10;42.70;;;;;;5040712;28;20435;-71
2022/11/19 01:42:48;;;;;;;;;;;19.10;42.60;;;;;;5052088;28;19913;-71
2022/11/19 01:45:04;;;;;;;;;;;19.10;42.60;;;;;;5045181;28;19913;-71
2022/11/19 01:47:29;;;;;;;;;;;19.10;42.80;;;;;;5036482;28;19913;-72
2022/11/19 01:49:55;;;;;;;;;;;19.00;42.80;;;;;;5049636;28;19924;-72
2022/11/19 01:52:20;;;;;;;;;;;19.00;42.90;;;;;;5049210;28;19920;-72
2022/11/19 01:54:46;;;;;;;;;;;19.00;42.70;;;;;;5047770;28;20024;-72
2022/11/19 01:57:12;;;;;;;;;;;19.00;42.70;;;;;;5030988;28;19917;-71
2022/11/19 01:59:37;;;;;;;;;;;19.00;42.70;;;;;;5026921;28;20114;-72
2022/11/19 02:02:03;;;;;;;;;;;19.00;42.60;;;;;;5032377;28;20051;-72
2022/11/19 02:04:28;;;;;;;;;;;19.10;42.60;;;;;;5050188;28;19919;-72
2022/11/19 02:06:54;;;;;;;;;;;19.10;42.60;;;;;;5028458;28;19920;-72
2022/11/19 02:09:19;;;;;;;;;;;19.00;42.50;;;;;;5027746;28;19913;-72
2022/11/19 02:12:06;;;;;;;;;;;19.00;42.50;;;;;;5025666;28;19921;-72
2022/11/19 02:14:51;;;;;;;;;;;19.00;42.50;;;;;;5050513;28;19913;-71
2022/11/19 02:17:23;;;;;;;;;;;19.00;42.50;;;;;;5032161;28;19917;-72
2022/11/19 02:19:51;;;;;;;;;;;19.00;42.50;;;;;;5049148;28;19916;-72
2022/11/19 02:22:32;;;;;;;;;;;19.00;42.40;;;;;;5051495;28;19928;-73
2022/11/19 02:25:12;;;;;;;;;;;19.00;42.40;;;;;;5030738;28;19947;-72
2022/11/19 02:27:38;;;;;;;;;;;19.00;42.40;;;;;;5051663;28;20335;-72
2022/11/19 02:30:07;;;;;;;;;;;19.00;42.30;;;;;;5051861;28;20016;-72
2022/11/19 02:32:34;;;;;;;;;;;19.00;42.20;;;;;;5028754;28;19912;-73
2022/11/19 02:35:12;;;;;;;;;;;19.00;42.30;;;;;;5040376;28;19917;-72
2022/11/19 02:37:41;;;;;;;;;;;19.00;42.20;;;;;;5025315;28;19931;-72
2022/11/19 02:40:08;;;;;;;;;;;19.00;42.30;;;;;;5050934;28;19917;-71
2022/11/19 02:42:36;;;;;;;;;;;19.00;42.20;;;;;;5052877;28;19962;-72
2022/11/19 02:45:02;;;;;;;;;;;19.00;42.20;;;;;;5034210;28;19952;-72
2022/11/19 02:47:28;;;;;;;;;;;19.00;42.20;;;;;;5043758;28;20451;-72
2022/11/19 02:49:53;;;;;;;;;;;19.00;42.20;;;;;;5032579;28;19999;-71
2022/11/19 02:52:19;;;;;;;;;;;19.00;42.20;;;;;;5032145;28;19917;-72
2022/11/19 02:54:44;;;;;;;;;;;18.90;42.10;;;;;;5050727;28;20288;-72
2022/11/19 02:57:10;;;;;;;;;;;19.00;42.10;;;;;;5046894;28;20434;-72
2022/11/19 03:05:06;;;;;;;;;;;18.90;42.00;;;;;;5040483;28;19923;-72
2022/11/19 03:07:31;;;;;;;;;;;18.90;42.10;;;;;;5027659;28;19913;-71
2022/11/19 03:09:58;;;;;;;;;;;18.90;42.10;;;;;;5031894;28;19970;-72
2022/11/19 03:12:27;;;;;;;;;;;18.90;42.10;;;;;;5044979;28;20281;-71
2022/11/19 03:17:42;;;;;;;;;;;18.90;42.00;;;;;;5043688;28;20404;-72
2022/11/19 03:20:40;;;;;;;;;;;18.90;42.00;;;;;;5043743;28;19981;-71
2022/11/19 03:23:06;;;;;;;;;;;18.90;42.10;;;;;;4993940;28;19978;-72
2022/11/19 03:25:32;;;;;;;;;;;18.90;42.20;;;;;;5053798;28;19917;-72
2022/11/19 03:27:59;;;;;;;;;;;18.90;42.10;;;;;;5026933;28;19920;-72
2022/11/19 03:30:25;;;;;;;;;;;18.90;42.00;;;;;;5034411;28;20135;-72
2022/11/19 03:32:53;;;;;;;;;;;18.90;42.00;;;;;;5050966;28;19962;-72
2022/11/19 03:35:24;;;;;;;;;;;18.90;41.90;;;;;;5030330;28;19921;-72
2022/11/19 03:37:50;;;;;;;;;;;18.90;42.00;;;;;;5031432;28;19921;-72
2022/11/19 03:40:15;;;;;;;;;;;18.90;41.90;;;;;;5034446;28;20335;-72
2022/11/19 03:42:41;;;;;;;;;;;18.90;41.80;;;;;;5026675;28;19959;-72
2022/11/19 03:45:12;;;;;;;;;;;18.90;41.90;;;;;;5050198;28;19956;-71
2022/11/19 03:47:37;;;;;;;;;;;18.80;41.90;;;;;;5036112;28;19916;-72
2022/11/19 03:50:35;;;;;;;;;;;18.80;41.80;;;;;;5029779;28;20039;-72
2022/11/19 03:53:01;;;;;;;;;;;18.80;41.90;;;;;;4983708;28;19913;-73
2022/11/19 03:55:29;;;;;;;;;;;18.80;41.90;;;;;;5050946;28;20064;-72
2022/11/19 03:57:59;;;;;;;;;;;18.80;41.80;;;;;;5031524;28;20296;-72
2022/11/19 04:00:25;;;;;;;;;;;18.90;41.80;;;;;;5031459;28;19913;-72
2022/11/19 04:02:50;;;;;;;;;;;18.80;41.70;;;;;;5045720;28;19917;-72
2022/11/19 04:05:15;;;;;;;;;;;18.80;41.80;;;;;;5046314;28;19917;-72
2022/11/19 04:07:41;;;;;;;;;;;18.90;41.80;;;;;;5029325;28;19929;-72
2022/11/19 04:10:06;;;;;;;;;;;18.90;41.70;;;;;;5045438;28;19917;-71
2022/11/19 04:12:32;;;;;;;;;;;18.80;41.70;;;;;;5034220;28;19921;-71
2022/11/19 04:14:57;;;;;;;;;;;18.80;41.70;;;;;;5029094;28;19917;-73
2022/11/19 04:17:23;;;;;;;;;;;18.80;41.70;;;;;;5047058;28;19920;-73
2022/11/19 04:19:48;;;;;;;;;;;18.80;41.70;;;;;;5052298;28;20007;-72
2022/11/19 04:22:14;;;;;;;;;;;18.80;41.60;;;;;;5016586;28;19920;-71
2022/11/19 04:24:39;;;;;;;;;;;18.80;41.50;;;;;;5028294;28;19921;-72
2022/11/19 04:27:05;;;;;;;;;;;18.80;41.60;;;;;;5049446;28;19966;-72
2022/11/19 04:29:30;;;;;;;;;;;18.80;41.70;;;;;;5033805;28;20441;-72
2022/11/19 04:31:55;;;;;;;;;;;18.70;41.70;;;;;;5051698;28;19912;-72
2022/11/19 04:34:21;;;;;;;;;;;18.70;41.60;;;;;;5024958;28;19944;-71
2022/11/19 04:36:46;;;;;;;;;;;18.70;41.60;;;;;;5024200;28;19932;-71
2022/11/19 04:39:12;;;;;;;;;;;18.70;41.50;;;;;;5032303;28;19920;-71
2022/11/19 04:41:37;;;;;;;;;;;18.70;41.60;;;;;;5046795;28;19916;-72
2022/11/19 04:44:03;;;;;;;;;;;18.70;41.60;;;;;;5031122;28;20395;-72
2022/11/19 04:46:28;;;;;;;;;;;18.70;41.60;;;;;;5026391;28;19921;-72
2022/11/19 04:48:54;;;;;;;;;;;18.70;41.50;;;;;;5044221;28;19921;-71
2022/11/19 04:51:19;;;;;;;;;;;18.70;41.50;;;;;;5032014;28;19917;-72
2022/11/19 04:53:45;;;;;;;;;;;18.70;41.50;;;;;;5047290;28;20390;-71
2022/11/19 04:56:10;;;;;;;;;;;18.70;41.50;;;;;;5030391;28;20391;-72
2022/11/19 04:58:36;;;;;;;;;;;18.70;41.50;;;;;;5049301;28;20338;-73
2022/11/19 05:01:01;;;;;;;;;;;18.70;41.30;;;;;;5032560;28;19921;-72
2022/11/19 05:03:27;;;;;;;;;;;18.70;41.30;;;;;;5050371;28;20058;-72
2022/11/19 05:05:52;;;;;;;;;;;18.70;41.40;;;;;;5045378;28;19971;-71
2022/11/19 05:08:17;;;;;;;;;;;18.70;41.40;;;;;;5016262;28;20345;-72
2022/11/19 05:10:43;;;;;;;;;;;18.70;41.30;;;;;;5030337;28;19992;-72
2022/11/19 05:13:08;;;;;;;;;;;18.70;41.30;;;;;;5025245;28;19916;-71
2022/11/19 05:15:34;;;;;;;;;;;18.70;41.20;;;;;;5032710;28;19935;-72
2022/11/19 05:17:59;;;;;;;;;;;18.70;41.20;;;;;;5050928;28;20369;-71
2022/11/19 05:20:25;;;;;;;;;;;18.70;41.20;;;;;;5032349;28;20373;-72
2022/11/19 05:22:50;;;;;;;;;;;18.70;41.20;;;;;;5050859;28;20011;-72
2022/11/19 05:25:16;;;;;;;;;;;18.70;41.30;;;;;;5019268;28;19977;-72
2022/11/19 05:27:41;;;;;;;;;;;18.70;41.30;;;;;;5055805;28;19920;-72
2022/11/19 05:30:07;;;;;;;;;;;18.70;41.20;;;;;;5045376;28;20335;-71
2022/11/19 05:32:35;;;;;;;;;;;18.70;41.20;;;;;;5046168;28;20335;-71
2022/11/19 05:35:01;;;;;;;;;;;18.70;41.20;;;;;;5054024;28;19916;-71
2022/11/19 05:37:26;;;;;;;;;;;18.70;41.20;;;;;;5045461;28;20089;-72
2022/11/19 05:39:52;;;;;;;;;;;18.70;41.20;;;;;;5034916;28;19954;-71
2022/11/19 05:42:17;;;;;;;;;;;18.70;41.20;;;;;;5037210;28;19917;-71
2022/11/19 05:44:43;;;;;;;;;;;18.70;41.30;;;;;;5030177;28;20440;-72
2022/11/19 05:47:08;;;;;;;;;;;18.70;41.20;;;;;;5031203;28;20288;-72
2022/11/19 05:49:34;;;;;;;;;;;18.60;41.10;;;;;;5017940;28;19971;-72
2022/11/19 05:51:59;;;;;;;;;;;18.70;41.20;;;;;;5031012;28;19999;-72
2022/11/19 05:54:24;;;;;;;;;;;18.70;41.20;;;;;;5031789;28;19956;-72
2022/11/19 05:56:50;;;;;;;;;;;18.70;41.20;;;;;;5030995;28;19924;-72
2022/11/19 05:59:15;;;;;;;;;;;18.70;41.20;;;;;;5033013;28;19913;-72
2022/11/19 06:01:41;;;;;;;;;;;18.70;41.80;;;;;;5025437;28;19912;-71
2022/11/19 06:04:07;;;;;;;;;;;18.70;41.20;;;;;;5031870;28;19974;-72
2022/11/19 06:06:32;;;;;;;;;;;18.60;41.10;;;;;;5029313;28;20354;-72
2022/11/19 06:08:57;;;;;;;;;;;18.60;41.20;;;;;;5034623;28;19924;-72
2022/11/19 06:14:07;;;;;;;;;;;18.60;41.10;;;;;;5032254;28;19982;-72
2022/11/19 06:16:32;;;;;;;;;;;18.60;41.20;;;;;;5027538;28;19922;-72
2022/11/19 06:18:58;;;;;;;;;;;18.60;41.20;;;;;;5027673;28;20396;-72
2022/11/19 06:21:23;;;;;;;;;;;18.60;41.10;;;;;;5027162;28;20328;-69
2022/11/19 06:23:49;;;;;;;;;;;18.60;41.10;;;;;;5027439;28;19920;-72
2022/11/19 06:26:24;;;;;;;;;;;18.60;41.10;;;;;;5027164;28;19921;-71
2022/11/19 06:28:49;;;;;;;;;;;18.70;41.00;;;;;;5029224;28;20596;-72
2022/11/19 06:31:15;;;;;;;;;;;18.60;41.00;;;;;;5027415;28;19921;-72
2022/11/19 06:33:40;;;;;;;;;;;18.70;41.00;;;;;;5018902;28;19921;-71
2022/11/19 06:36:06;;;;;;;;;;;18.70;41.10;;;;;;5028781;28;19923;-72
2022/11/19 06:38:31;;;;;;;;;;;18.60;41.00;;;;;;5048748;28;20039;-72
2022/11/19 06:40:57;;;;;;;;;;;18.60;40.90;;;;;;5050844;28;19928;-72
2022/11/19 06:43:22;;;;;;;;;;;18.60;41.00;;;;;;5049978;28;20003;-72
2022/11/19 06:45:48;;;;;;;;;;;18.60;41.10;;;;;;5046843;28;19917;-72
2022/11/19 06:48:13;;;;;;;;;;;18.60;41.00;;;;;;5047723;28;19928;-73
2022/11/19 06:50:38;;;;;;;;;;;18.60;41.10;;;;;;5024159;28;19917;-72
2022/11/19 06:53:04;;;;;;;;;;;18.60;41.10;;;;;;5048112;28;19995;-72
2022/11/19 06:55:29;;;;;;;;;;;18.60;41.10;;;;;;5047019;28;20428;-72
2022/11/19 06:57:56;;;;;;;;;;;18.60;41.00;;;;;;5045062;28;19917;-72
2022/11/19 07:00:22;;;;;;;;;;;18.60;40.90;;;;;;5010291;28;19948;-72
2022/11/19 07:02:47;;;;;;;;;;;18.60;40.90;;;;;;5045907;28;20345;-72
2022/11/19 07:05:12;;;;;;;;;;;18.60;40.90;;;;;;5040500;28;19924;-71
2022/11/19 07:07:38;;;;;;;;;;;18.60;40.90;;;;;;5043998;28;19917;-72
2022/11/19 07:10:03;;;;;;;;;;;18.60;40.90;;;;;;5047174;28;19932;-72
2022/11/19 07:12:29;;;;;;;;;;;18.60;41.00;;;;;;5043386;28;19940;-72
2022/11/19 07:14:54;;;;;;;;;;;18.60;40.90;;;;;;5048790;28;19917;-72
2022/11/19 07:17:20;;;;;;;;;;;18.60;41.00;;;;;;5049210;28;19916;-72
2022/11/19 07:19:45;;;;;;;;;;;18.50;41.00;;;;;;5017046;28;19912;-73
2022/11/19 07:22:11;;;;;;;;;;;18.50;40.90;;;;;;5047663;28;19913;-72
2022/11/19 07:24:36;;;;;;;;;;;18.50;40.90;;;;;;5050193;28;19913;-71
2022/11/19 07:27:01;;;;;;;;;;;18.50;40.90;;;;;;5048867;28;19917;-72
2022/11/19 07:29:27;;;;;;;;;;;18.60;41.00;;;;;;5043266;28;19925;-71
2022/11/19 07:31:52;;;;;;;;;;;18.50;41.00;;;;;;5037248;28;19913;-71
2022/11/19 07:34:18;;;;;;;;;;;18.50;40.90;;;;;;5046927;28;19956;-72
2022/11/19 07:36:44;;;;;;;;;;;18.50;40.90;;;;;;5036904;28;19924;-71
2022/11/19 07:39:09;;;;;;;;;;;18.50;40.90;;;;;;5026786;28;19952;-72
2022/11/19 07:44:19;;;;;;;;;;;18.60;40.90;;;;;;5049674;28;19920;-71
2022/11/19 07:46:44;;;;;;;;;;;18.60;40.90;;;;;;5055305;28;19913;-71
2022/11/19 07:49:10;;;;;;;;;;;18.60;40.90;;;;;;5035135;28;19917;-71
2022/11/19 07:51:35;;;;;;;;;;;18.60;40.90;;;;;;5052318;28;19917;-73
2022/11/19 07:54:00;;;;;;;;;;;18.50;40.80;;;;;;5031918;28;20044;-72
2022/11/19 07:56:26;;;;;;;;;;;18.60;40.90;;;;;;5050350;28;19917;-71
2022/11/19 07:58:51;;;;;;;;;;;18.60;40.90;;;;;;5047771;28;19913;-72
2022/11/19 08:01:20;;;;;;;;;;;18.60;40.90;;;;;;5049933;28;19986;-72
2022/11/19 08:03:46;;;;;;;;;;;18.60;41.00;;;;;;5031780;28;20407;-72
2022/11/19 08:06:12;;;;;;;;;;;18.60;40.90;;;;;;5050074;28;20003;-72
2022/11/19 08:08:38;;;;;;;;;;;18.60;40.90;;;;;;5043478;28;19917;-72
2022/11/19 08:11:04;;;;;;;;;;;18.60;40.90;;;;;;5045658;28;19921;-72
2022/11/19 08:13:29;;;;;;;;;;;18.60;41.00;;;;;;5029479;28;19969;-71
2022/11/19 08:15:58;;;;;;;;;;;18.60;40.90;;;;;;5050094;28;19921;-72
2022/11/19 08:18:23;;;;;;;;;;;18.60;41.00;;;;;;5026924;28;20396;-72
2022/11/19 08:20:49;;;;;;;;;;;18.60;40.80;;;;;;5049755;28;19963;-73
2022/11/19 08:23:14;;;;;;;;;;;18.60;40.80;;;;;;5051973;28;19913;-72
2022/11/19 08:25:41;;;;;;;;;;;18.70;40.80;;;;;;5054195;28;19912;-72
2022/11/19 08:28:06;;;;;;;;;;;18.60;40.80;;;;;;5047605;28;19913;-72
2022/11/19 08:30:32;;;;;;;;;;;18.60;40.80;;;;;;5043298;28;19913;-72
2022/11/19 08:32:57;;;;;;;;;;;18.70;40.80;;;;;;5044479;28;19947;-72
2022/11/19 08:35:23;;;;;;;;;;;18.60;40.80;;;;;;5041894;28;19920;-72
2022/11/19 08:37:48;;;;;;;;;;;18.60;40.90;;;;;;5027994;28;19935;-72
2022/11/19 08:40:14;;;;;;;;;;;18.70;40.90;;;;;;5055263;28;19909;-72
2022/11/19 08:45:28;;;;;;;;;;;18.70;40.80;;;;;;5037411;28;20483;-72
2022/11/19 08:47:54;;;;;;;;;;;18.70;40.80;;;;;;5017541;28;19913;-72
2022/11/19 08:50:19;;;;;;;;;;;18.70;40.80;;;;;;5017565;28;19912;-72
2022/11/19 08:52:45;;;;;;;;;;;18.70;40.70;;;;;;5032507;28;19924;-72
2022/11/19 08:55:11;;;;;;;;;;;18.60;40.80;;;;;;5050342;28;20288;-72
2022/11/19 08:57:37;;;;;;;;;;;18.60;40.80;;;;;;5049764;28;19968;-72
2022/11/19 09:00:03;;;;;;;;;;;18.60;40.80;;;;;;5046288;28;19972;-72
2022/11/19 09:02:28;;;;;;;;;;;18.60;40.90;;;;;;5033577;28;20659;-71
2022/11/19 09:04:53;;;;;;;;;;;18.60;40.90;;;;;;5035556;28;19917;-73
2022/11/19 09:07:19;;;;;;;;;;;18.60;40.90;;;;;;5049396;28;19913;-73
2022/11/19 09:09:44;;;;;;;;;;;18.70;40.80;;;;;;5034360;28;19998;-72
2022/11/19 09:12:10;;;;;;;;;;;18.70;40.70;;;;;;5033228;28;20153;-72
2022/11/19 09:14:36;;;;;;;;;;;18.80;40.70;;;;;;5049579;28;20291;-72
2022/11/19 09:17:01;;;;;;;;;;;18.90;40.70;;;;;;5053052;28;19963;-72
2022/11/19 09:19:27;;;;;;;;;;;18.90;40.60;;;;;;5036654;28;19939;-71
2022/11/19 09:21:52;;;;;;;;;;;18.90;40.50;;;;;;5032157;28;20002;-72
2022/11/19 09:24:18;;;;;;;;;;;18.90;40.50;;;;;;5046728;28;19928;-71
2022/11/19 09:26:43;;;;;;;;;;;19.00;40.60;;;;;;5035763;28;20194;-71
2022/11/19 09:29:09;;;;;;;;;;;19.00;40.60;;;;;;5019027;28;20377;-74
2022/11/19 09:31:34;;;;;;;;;;;19.00;40.70;;;;;;5046162;28;20395;-72
2022/11/19 09:33:59;;;;;;;;;;;19.00;40.70;;;;;;5031913;28;19913;-72
2022/11/19 09:36:25;;;;;;;;;;;19.00;40.60;;;;;;5033750;28;20007;-72
2022/11/19 09:38:54;;;;;;;;;;;19.00;40.70;;;;;;5034244;28;19925;-72
2022/11/19 09:41:19;;;;;;;;;;;19.00;40.80;;;;;;5027680;28;19967;-73
2022/11/19 09:43:45;;;;;;;;;;;19.00;40.70;;;;;;5046983;28;19944;-73
2022/11/19 09:46:24;;;;;;;;;;;19.00;40.70;;;;;;5046116;28;20089;-72
2022/11/19 09:48:49;;;;;;;;;;;19.00;40.70;;;;;;5032995;28;20292;-72
2022/11/19 09:51:15;;;;;;;;;;;19.00;41.00;;;;;;5032671;28;19988;-73
2022/11/19 09:53:46;;;;;;;;;;;19.10;41.20;;;;;;5015734;28;19920;-73
2022/11/19 09:56:13;;;;;;;;;;;19.20;41.40;;;;;;5028921;28;19935;-73
2022/11/19 09:58:40;;;;;;;;;;;19.40;41.40;;;;;;5035090;28;19917;-73
2022/11/19 10:01:06;;;;;;;;;;;19.60;41.20;;;;;;5033066;28;19913;-72
2022/11/19 10:03:31;;;;;;;;;;;19.80;41.10;;;;;;5034329;28;19917;-72
2022/11/19 10:06:11;;;;;;;;;;;19.90;40.90;;;;;;5051078;28;19917;-73
2022/11/19 10:08:56;;;;;;;;;;;20.00;40.90;;;;;;5045445;28;20269;-73
2022/11/19 10:11:32;;;;;;;;;;;20.10;40.80;;;;;;5042230;28;19936;-72
2022/11/19 10:13:58;;;;;;;;;;;20.20;40.80;;;;;;5028061;28;20566;-72
2022/11/19 10:16:27;;;;;;;;;;;20.30;40.70;;;;;;5047833;28;19913;-73
2022/11/19 10:18:57;;;;;;;;;;;20.40;40.90;;;;;;5034429;28;20378;-73
2022/11/19 10:21:25;;;;;;;;;;;20.40;41.00;;;;;;5033638;28;19927;-73
2022/11/19 10:23:53;;;;;;;;;;;20.50;41.10;;;;;;5041777;28;19932;-74
2022/11/19 10:26:22;;;;;;;;;;;20.50;41.00;;;;;;5050573;28;20654;-73
2022/11/19 10:28:51;;;;;;;;;;;20.60;41.00;;;;;;5032023;28;20391;-72
2022/11/19 10:31:25;;;;;;;;;;;20.60;41.10;;;;;;5034350;28;19960;-73
2022/11/19 10:33:52;;;;;;;;;;;20.70;41.20;;;;;;5027905;28;20327;-73
2022/11/19 10:36:25;;;;;;;;;;;20.70;41.20;;;;;;5046990;28;20356;-73
2022/11/19 10:38:55;;;;;;;;;;;20.70;41.30;;;;;;5049091;28;19912;-73
2022/11/19 10:41:32;;;;;;;;;;;20.70;41.30;;;;;;5043997;28;19967;-74
2022/11/19 10:44:05;;;;;;;;;;;20.80;41.30;;;;;;5049823;28;19917;-73
2022/11/19 10:46:31;;;;;;;;;;;20.80;41.40;;;;;;5033758;28;19919;-73
2022/11/19 10:48:57;;;;;;;;;;;20.80;41.40;;;;;;5052637;28;19917;-74
2022/11/19 10:51:29;;;;;;;;;;;20.80;41.50;;;;;;5051245;28;19913;-74
2022/11/19 10:53:56;;;;;;;;;;;20.80;41.60;;;;;;5051363;28;20343;-73
2022/11/19 10:56:34;;;;;;;;;;;20.90;41.60;;;;;;5019307;28;19960;-72
2022/11/19 10:59:02;;;;;;;;;;;20.90;41.70;;;;;;5047421;28;19916;-72
2022/11/19 11:01:28;;;;;;;;;;;20.90;41.80;;;;;;5048874;28;19966;-72
2022/11/19 11:04:05;;;;;;;;;;;20.90;41.90;;;;;;5047113;28;20376;-73
2022/11/19 11:06:51;;;;;;;;;;;20.90;42.30;;;;;;5035774;28;19936;-72
2022/11/19 11:09:33;;;;;;;;;;;20.90;42.20;;;;;;5051805;28;19952;-71
2022/11/19 11:14:53;;;;;;;;;;;20.90;42.20;;;;;;5038919;28;19943;-72
2022/11/19 11:17:23;;;;;;;;;;;20.90;42.40;;;;;;5047871;28;19968;-72
2022/11/19 11:19:56;;;;;;;;;;;20.90;42.40;;;;;;5027163;28;20004;-71
2022/11/19 11:22:21;;;;;;;;;;;21.00;42.60;;;;;;5032414;28;19913;-72
2022/11/19 11:24:47;;;;;;;;;;;20.90;43.00;;;;;;5033871;28;19935;-73
2022/11/19 11:27:33;;;;;;;;;;;20.90;42.90;;;;;;5051694;28;20404;-73
2022/11/19 11:30:10;;;;;;;;;;;20.90;42.80;;;;;;5050911;28;19917;-72
2022/11/19 11:32:36;;;;;;;;;;;20.90;42.70;;;;;;5045114;28;19956;-73
2022/11/19 11:35:01;;;;;;;;;;;20.90;42.80;;;;;;5030918;28;19955;-72
2022/11/19 11:37:27;;;;;;;;;;;21.00;43.00;;;;;;5025343;28;19928;-72
2022/11/19 11:39:53;;;;;;;;;;;21.00;43.10;;;;;;5035430;28;20031;-72
2022/11/19 11:42:19;;;;;;;;;;;21.00;43.10;;;;;;5052183;28;20031;-72
2022/11/19 11:44:49;;;;;;;;;;;21.10;43.30;;;;;;5035631;28;19992;-73
2022/11/19 11:47:28;;;;;;;;;;;21.10;44.00;;;;;;5050341;28;20376;-73
2022/11/19 11:49:56;;;;;;;;;;;21.10;43.40;;;;;;5048151;28;19920;-72
2022/11/19 11:52:25;;;;;;;;;;;21.10;43.40;;;;;;5051361;28;19913;-72
2022/11/19 11:54:58;;;;;;;;;;;21.10;43.60;;;;;;5025296;28;19914;-73
2022/11/19 11:57:24;;;;;;;;;;;21.20;43.60;;;;;;5043318;28;19925;-73
2022/11/19 11:59:50;;;;;;;;;;;21.20;43.20;;;;;;5033279;28;19913;-72
2022/11/19 12:02:28;;;;;;;;;;;21.20;43.40;;;;;;5047867;28;19909;-72
2022/11/19 12:04:54;;;;;;;;;;;21.20;43.60;;;;;;5023573;28;19932;-74
2022/11/19 12:07:22;;;;;;;;;;;21.20;43.70;;;;;;5037913;28;20339;-71
2022/11/19 12:09:50;;;;;;;;;;;21.20;43.40;;;;;;5031218;28;19916;-72
2022/11/19 12:12:36;;;;;;;;;;;21.30;43.50;;;;;;5032088;28;19959;-73
2022/11/19 12:15:09;;;;;;;;;;;21.30;43.60;;;;;;5027876;28;19928;-73
2022/11/19 12:17:42;;;;;;;;;;;21.20;43.30;;;;;;5031849;28;19916;-73
2022/11/19 12:20:08;;;;;;;;;;;21.30;43.30;;;;;;5030724;28;19999;-73
2022/11/19 12:22:40;;;;;;;;;;;21.30;43.10;;;;;;5043862;28;19917;-73
2022/11/19 12:25:17;;;;;;;;;;;21.40;43.00;;;;;;5049219;28;20384;-73
2022/11/19 12:27:55;;;;;;;;;;;21.40;43.00;;;;;;5042814;28;19947;-72
2022/11/19 12:30:28;;;;;;;;;;;21.40;43.40;;;;;;5051710;28;20403;-72
2022/11/19 12:32:59;;;;;;;;;;;21.40;43.60;;;;;;5034807;28;19974;-74
2022/11/19 12:35:31;;;;;;;;;;;21.40;44.10;;;;;;5053047;28;19943;-73
2022/11/19 12:38:19;;;;;;;;;;;21.40;44.10;;;;;;5026622;28;19924;-73
2022/11/19 12:40:44;;;;;;;;;;;21.40;44.50;;;;;;5053031;28;20447;-73
2022/11/19 12:43:28;;;;;;;;;;;21.40;44.60;;;;;;5045354;28;20001;-73
2022/11/19 12:46:00;;;;;;;;;;;21.40;44.90;;;;;;5051700;28;19917;-73
2022/11/19 12:48:36;;;;;;;;;;;21.40;45.50;;;;;;5034287;28;19961;-73
2022/11/19 12:51:07;;;;;;;;;;;21.40;44.90;;;;;;5054600;28;20300;-73
2022/11/19 12:53:37;;;;;;;;;;;21.40;45.00;;;;;;5046014;28;19960;-73
2022/11/19 12:56:21;;;;;;;;;;;21.50;45.00;;;;;;5044352;28;20024;-72
2022/11/19 12:59:00;;;;;;;;;;;21.40;45.00;;;;;;5035390;28;19917;-72
2022/11/19 13:01:26;;;;;;;;;;;21.50;45.20;;;;;;5033180;28;19912;-72
2022/11/19 13:04:10;;;;;;;;;;;21.50;45.00;;;;;;5037088;28;19920;-71
2022/11/19 13:06:42;;;;;;;;;;;21.40;44.70;;;;;;5051074;28;19913;-73
2022/11/19 13:09:08;;;;;;;;;;;21.50;45.00;;;;;;5056038;28;19966;-72
2022/11/19 13:11:35;;;;;;;;;;;21.40;45.00;;;;;;5051294;28;19920;-72
2022/11/19 13:14:05;;;;;;;;;;;21.40;45.00;;;;;;5036417;28;19917;-72
2022/11/19 13:16:31;;;;;;;;;;;21.40;45.30;;;;;;5054908;28;19993;-73
2022/11/19 13:19:09;;;;;;;;;;;21.40;45.30;;;;;;5030048;28;19970;-73
2022/11/19 13:21:42;;;;;;;;;;;21.50;45.20;;;;;;5029440;28;20331;-74
2022/11/19 13:24:25;;;;;;;;;;;21.50;45.20;;;;;;5033523;28;19913;-73
2022/11/19 13:26:51;;;;;;;;;;;21.50;45.10;;;;;;5016386;28;19920;-73
2022/11/19 13:29:36;;;;;;;;;;;21.50;45.20;;;;;;5050213;28;19917;-73
2022/11/19 13:32:03;;;;;;;;;;;21.50;45.10;;;;;;5029135;28;20043;-73
2022/11/19 13:34:37;;;;;;;;;;;21.40;45.00;;;;;;5033113;28;20461;-72
2022/11/19 13:37:23;;;;;;;;;;;21.40;45.00;;;;;;5046742;28;19929;-73
2022/11/19 13:39:49;;;;;;;;;;;21.40;45.00;;;;;;5030732;28;20027;-73
2022/11/19 13:44:59;;;;;;;;;;;21.40;45.00;;;;;;5042941;28;19974;-73
2022/11/19 13:47:26;;;;;;;;;;;21.40;45.00;;;;;;5051715;28;20368;-74
2022/11/19 13:49:52;;;;;;;;;;;21.30;44.90;;;;;;5015317;28;19920;-73
2022/11/19 13:52:25;;;;;;;;;;;21.30;44.80;;;;;;5042684;28;20019;-73
2022/11/19 13:54:50;;;;;;;;;;;21.40;44.80;;;;;;5008270;28;19917;-75
2022/11/19 13:57:29;;;;;;;;;;;21.40;44.70;;;;;;5029750;28;20273;-74
2022/11/19 13:59:56;;;;;;;;;;;21.40;44.70;;;;;;5027203;28;19969;-74
2022/11/19 14:02:29;;;;;;;;;;;21.40;44.70;;;;;;5053181;28;19909;-74
2022/11/19 14:05:14;;;;;;;;;;;21.50;44.60;;;;;;5035433;28;19919;-73
2022/11/19 14:07:42;;;;;;;;;;;21.50;44.60;;;;;;5042094;28;19920;-73
2022/11/19 14:10:29;;;;;;;;;;;21.50;44.50;;;;;;5044516;28;19909;-72
2022/11/19 14:12:57;;;;;;;;;;;21.50;44.50;;;;;;5032391;28;19917;-74
2022/11/19 14:27:25;;;;;;;;;;;21.60;44.60;;;;;;5045197;28;19966;-73
2022/11/19 14:30:11;;;;;;;;;;;21.60;44.80;;;;;;5028561;28;20013;-73
2022/11/19 14:32:37;;;;;;;;;;;21.50;45.40;;;;;;5037005;28;20372;-73
2022/11/19 14:35:03;;;;;;;;;;;21.50;44.80;;;;;;5046962;28;19951;-75
2022/11/19 14:37:35;;;;;;;;;;;21.50;44.80;;;;;;5046978;28;19982;-73
2022/11/19 14:40:20;;;;;;;;;;;21.50;44.80;;;;;;5046959;28;19951;-73
2022/11/19 14:46:08;;;;;;;;;;;21.50;44.90;;;;;;5049548;28;19940;-73
2022/11/19 14:48:39;;;;;;;;;;;21.50;44.80;;;;;;5038909;28;20115;-74
2022/11/19 14:51:17;;;;;;;;;;;21.60;44.90;;;;;;5047720;28;19940;-73
2022/11/19 14:53:54;;;;;;;;;;;21.50;44.90;;;;;;5025495;28;19962;-73
2022/11/19 14:56:20;;;;;;;;;;;21.60;44.90;;;;;;5032009;28;20011;-75
2022/11/19 14:58:49;;;;;;;;;;;21.60;45.00;;;;;;5025316;28;21067;-73
2022/11/19 15:01:15;;;;;;;;;;;21.50;45.00;;;;;;5031813;28;19963;-72
2022/11/19 15:03:44;;;;;;;;;;;21.60;44.90;;;;;;5034284;28;19913;-72
2022/11/19 15:06:09;;;;;;;;;;;21.60;44.90;;;;;;5032593;28;19921;-72
2022/11/19 15:08:48;;;;;;;;;;;21.60;45.10;;;;;;5032241;28;19963;-73